createdAt,value
2019-01-14T00:01:09.528Z,6.60
2019-01-14T00:03:40.345Z,6.56
2019-01-14T00:06:11.146Z,6.62
2019-01-14T00:08:43.899Z,6.65
2019-01-14T00:11:16.738Z,6.70
2019-01-14T00:13:50.664Z,6.66
2019-01-14T00:16:24.471Z,6.63
2019-01-14T00:18:55.283Z,6.58
2019-01-14T00:21:26.134Z,6.53
2019-01-14T00:23:56.941Z,6.47
2019-01-14T00:26:27.792Z,6.43
2019-01-14T00:28:58.732Z,6.35
2019-01-14T00:31:29.754Z,6.29
2019-01-14T00:34:00.898Z,6.20
2019-01-14T00:36:31.824Z,6.25
2019-01-14T00:39:02.919Z,6.27
2019-01-14T00:41:33.762Z,6.32
2019-01-14T00:44:04.726Z,6.35
2019-01-14T00:46:35.664Z,6.38
2019-01-14T00:49:06.862Z,6.47
2019-01-14T00:51:37.805Z,6.36
2019-01-14T00:54:10.686Z,6.00
2019-01-14T00:56:41.630Z,5.18
2019-01-14T00:59:12.551Z,4.75
2019-01-14T01:01:43.405Z,4.68
2019-01-14T01:04:14.238Z,4.66
2019-01-14T01:06:47.903Z,4.79
2019-01-14T01:09:18.762Z,4.84
2019-01-14T01:11:52.040Z,4.88
2019-01-14T01:14:26.086Z,4.96
2019-01-14T01:16:58.872Z,5.03
2019-01-14T01:19:29.669Z,5.11
2019-01-14T01:22:05.957Z,5.18
2019-01-14T01:24:39.329Z,5.23
2019-01-14T01:27:11.729Z,5.25
2019-01-14T01:29:42.642Z,5.26
2019-01-14T01:32:16.701Z,5.34
2019-01-14T01:34:47.671Z,5.26
2019-01-14T01:37:18.621Z,5.18
2019-01-14T01:39:49.525Z,5.05
2019-01-14T01:42:20.477Z,5.03
2019-01-14T01:44:51.329Z,5.06
2019-01-14T01:47:22.568Z,5.05
2019-01-14T01:49:56.373Z,4.97
2019-01-14T01:52:33.568Z,4.99
2019-01-14T01:55:04.842Z,5.10
2019-01-14T01:57:35.782Z,5.08
2019-01-14T02:00:14.429Z,5.13
2019-01-14T02:02:51.429Z,5.18
2019-01-14T02:05:22.914Z,5.30
2019-01-14T02:07:55.553Z,5.35
2019-01-14T02:10:27.561Z,5.40
2019-01-14T02:12:58.397Z,5.44
2019-01-14T02:15:30.899Z,5.52
2019-01-14T02:18:03.177Z,5.49
2019-01-14T02:20:34.152Z,5.51
2019-01-14T02:23:07.941Z,5.59
2019-01-14T02:25:38.857Z,5.62
2019-01-14T02:28:12.837Z,5.63
2019-01-14T02:30:43.759Z,5.62
2019-01-14T02:33:18.587Z,5.63
2019-01-14T02:35:49.526Z,5.66
2019-01-14T02:38:26.480Z,5.68
2019-01-14T02:40:57.406Z,5.70
2019-01-14T02:43:30.665Z,5.64
2019-01-14T02:46:01.488Z,5.66
2019-01-14T02:48:32.345Z,5.59
2019-01-14T02:51:03.251Z,5.61
2019-01-14T02:53:39.112Z,5.61
2019-01-14T02:56:09.680Z,5.60
2019-01-14T02:58:42.926Z,5.62
2019-01-14T03:01:13.808Z,5.60
2019-01-14T03:03:47.203Z,5.57
2019-01-14T03:06:20.260Z,5.58
2019-01-14T03:08:51.221Z,5.54
2019-01-14T03:11:22.064Z,5.56
2019-01-14T03:13:53.008Z,5.50
2019-01-14T03:16:23.805Z,5.45
2019-01-14T03:18:54.967Z,5.40
2019-01-14T03:21:27.133Z,5.35
2019-01-14T03:23:57.978Z,5.32
2019-01-14T03:26:28.848Z,5.31
2019-01-14T03:28:59.774Z,5.31
2019-01-14T03:31:30.614Z,5.33
2019-01-14T03:34:01.390Z,5.28
2019-01-14T03:36:35.180Z,5.24
2019-01-14T03:39:08.450Z,5.16
2019-01-14T03:41:39.299Z,5.14
2019-01-14T03:44:10.181Z,5.16
2019-01-14T03:46:46.113Z,5.20
2019-01-14T03:49:18.076Z,5.26
2019-01-14T03:51:48.940Z,5.21
2019-01-14T03:54:19.856Z,5.25
2019-01-14T03:56:50.772Z,5.25
2019-01-14T03:59:21.762Z,5.28
2019-01-14T04:01:52.606Z,5.23
2019-01-14T04:04:23.540Z,5.29
2019-01-14T04:06:54.356Z,5.33
2019-01-14T04:09:27.891Z,5.34
2019-01-14T04:12:00.196Z,5.34
2019-01-14T04:14:32.587Z,5.28
2019-01-14T04:17:03.468Z,5.32
2019-01-14T04:19:37.274Z,5.30
2019-01-14T04:22:08.460Z,5.34
2019-01-14T04:24:39.220Z,5.28
2019-01-14T04:27:10.120Z,5.28
2019-01-14T04:29:41.000Z,5.29
2019-01-14T04:32:11.940Z,5.24
2019-01-14T04:34:42.936Z,5.23
2019-01-14T04:37:21.484Z,5.19
2019-01-14T04:39:49.159Z,5.17
2019-01-14T04:42:22.227Z,5.16
2019-01-14T04:48:00.232Z,5.11
2019-01-14T04:50:31.250Z,5.07
2019-01-14T04:53:02.374Z,5.06
2019-01-14T04:55:33.840Z,5.01
2019-01-14T04:58:05.190Z,4.99
2019-01-14T05:00:36.088Z,4.97
2019-01-14T05:03:07.188Z,4.96
2019-01-14T05:05:40.173Z,4.95
2019-01-14T05:08:11.063Z,4.84
2019-01-14T05:10:45.015Z,4.73
2019-01-14T05:13:16.214Z,4.65
2019-01-14T05:15:47.279Z,4.64
2019-01-14T05:18:18.499Z,4.64
2019-01-14T05:20:49.828Z,4.65
2019-01-14T05:23:20.951Z,4.50
2019-01-14T05:25:51.816Z,4.42
2019-01-14T05:28:22.982Z,4.29
2019-01-14T05:30:54.023Z,4.23
2019-01-14T05:33:25.141Z,3.92
2019-01-14T05:35:56.148Z,3.66
2019-01-14T05:38:27.007Z,3.55
2019-01-14T05:40:57.783Z,3.59
2019-01-14T05:43:31.686Z,3.64
2019-01-14T05:46:02.381Z,3.76
2019-01-14T05:48:33.252Z,3.68
2019-01-14T05:51:04.068Z,3.72
2019-01-14T05:53:34.801Z,3.70
2019-01-14T05:56:05.741Z,3.77
2019-01-14T05:58:36.561Z,3.74
2019-01-14T06:01:07.373Z,3.62
2019-01-14T06:03:40.199Z,3.51
2019-01-14T06:06:11.031Z,3.39
2019-01-14T06:08:41.871Z,3.27
2019-01-14T06:11:12.709Z,3.19
2019-01-14T06:13:43.553Z,3.17
2019-01-14T06:16:14.478Z,3.16
2019-01-14T06:18:45.257Z,3.10
2019-01-14T06:21:16.199Z,3.00
2019-01-14T06:23:46.982Z,2.88
2019-01-14T06:26:17.799Z,2.97
2019-01-14T06:29:11.735Z,3.03
2019-01-14T06:31:42.591Z,3.08
2019-01-14T06:34:13.355Z,3.03
2019-01-14T06:36:44.136Z,3.10
2019-01-14T06:39:14.987Z,3.04
2019-01-14T06:41:45.819Z,3.03
2019-01-14T06:44:16.599Z,3.01
2019-01-14T06:46:47.355Z,2.91
2019-01-14T06:49:18.339Z,3.01
2019-01-14T06:51:49.107Z,3.10
2019-01-14T06:54:19.861Z,3.02
2019-01-14T06:56:50.665Z,3.08
2019-01-14T06:59:21.476Z,3.12
2019-01-14T07:01:52.231Z,3.02
2019-01-14T07:04:22.989Z,2.98
2019-01-14T07:06:53.715Z,3.03
2019-01-14T07:09:24.543Z,3.10
2019-01-14T07:11:55.363Z,3.14
2019-01-14T07:14:26.151Z,3.02
2019-01-14T07:16:56.907Z,2.92
2019-01-14T07:19:27.785Z,2.93
2019-01-14T07:21:58.597Z,2.84
2019-01-14T07:24:29.449Z,2.78
2019-01-14T07:27:00.208Z,2.80
2019-01-14T07:29:31.006Z,2.79
2019-01-14T07:32:01.749Z,2.86
2019-01-14T07:34:32.563Z,2.93
2019-01-14T07:37:03.597Z,2.92
2019-01-14T07:39:34.373Z,2.90
2019-01-14T07:42:05.206Z,2.93
2019-01-14T07:44:36.002Z,2.90
2019-01-14T07:47:06.892Z,2.97
2019-01-14T07:49:37.668Z,3.04
2019-01-14T07:52:08.381Z,3.13
2019-01-14T07:54:39.191Z,3.26
2019-01-14T07:57:09.939Z,3.26
2019-01-14T07:59:40.794Z,3.26
2019-01-14T08:02:11.610Z,3.38
2019-01-14T08:04:42.446Z,3.47
2019-01-14T08:07:13.305Z,3.53
2019-01-14T08:09:44.098Z,3.57
2019-01-14T08:12:14.885Z,3.56
2019-01-14T08:14:45.666Z,3.58
2019-01-14T08:17:16.418Z,3.59
2019-01-14T08:19:47.234Z,3.59
2019-01-14T08:22:18.077Z,3.64
2019-01-14T08:24:48.846Z,3.69
2019-01-14T08:27:19.607Z,3.66
2019-01-14T08:29:50.350Z,3.66
2019-01-14T08:32:21.170Z,3.60
2019-01-14T08:34:51.966Z,3.55
2019-01-14T08:37:22.717Z,3.51
2019-01-14T08:39:53.517Z,3.47
2019-01-14T08:42:24.457Z,3.49
2019-01-14T08:44:55.518Z,3.41
2019-01-14T08:47:26.306Z,3.34
2019-01-14T08:49:57.120Z,3.35
2019-01-14T08:52:27.940Z,3.33
2019-01-14T08:54:58.714Z,3.40
2019-01-14T08:57:29.485Z,3.49
2019-01-14T09:00:00.239Z,3.48
2019-01-14T09:02:31.050Z,3.49
2019-01-14T09:05:01.819Z,3.54
2019-01-14T09:07:32.576Z,3.54
2019-01-14T09:10:03.622Z,3.57
2019-01-14T09:12:36.794Z,3.52
2019-01-14T09:15:12.778Z,3.55
2019-01-14T09:17:43.766Z,3.54
2019-01-14T09:20:22.080Z,3.55
2019-01-14T09:22:56.093Z,3.62
2019-01-14T09:25:30.284Z,3.67
2019-01-14T09:28:04.387Z,3.61
2019-01-14T09:30:37.718Z,3.66
2019-01-14T09:33:08.608Z,3.71
2019-01-14T09:35:42.436Z,3.83
2019-01-14T09:38:13.351Z,3.78
2019-01-14T09:40:45.943Z,3.84
2019-01-14T09:43:16.761Z,3.94
2019-01-14T09:45:47.584Z,3.88
2019-01-14T09:48:18.533Z,3.87
2019-01-14T09:50:49.349Z,3.89
2019-01-14T09:53:20.205Z,3.81
2019-01-14T09:55:51.121Z,3.80
2019-01-14T09:58:21.945Z,3.78
2019-01-14T10:00:55.253Z,3.74
2019-01-14T10:03:26.140Z,3.61
2019-01-14T10:05:56.938Z,3.51
2019-01-14T10:08:27.673Z,3.52
2019-01-14T10:10:58.474Z,3.38
2019-01-14T10:13:34.503Z,3.29
2019-01-14T10:16:05.340Z,3.35
2019-01-14T10:18:36.378Z,3.40
2019-01-14T10:21:07.170Z,3.50
2019-01-14T10:23:37.984Z,3.58
2019-01-14T10:26:09.589Z,3.51
2019-01-14T10:28:44.529Z,3.46
2019-01-14T10:31:19.925Z,3.45
2019-01-14T10:33:50.481Z,3.48
2019-01-14T10:36:21.217Z,3.43
2019-01-14T10:38:52.101Z,3.37
2019-01-14T10:41:22.989Z,3.43
2019-01-14T10:43:53.749Z,3.52
2019-01-14T10:46:30.602Z,3.59
2019-01-14T10:49:06.853Z,3.62
2019-01-14T10:51:35.715Z,3.66
2019-01-14T10:54:18.026Z,3.54
2019-01-14T10:56:52.007Z,3.50
2019-01-14T10:59:22.785Z,3.53
2019-01-14T11:01:56.213Z,3.49
2019-01-14T11:04:28.856Z,3.46
2019-01-14T11:06:59.615Z,3.59
2019-01-14T11:09:30.421Z,3.74
2019-01-14T11:12:01.188Z,3.72
2019-01-14T11:14:39.403Z,3.73
2019-01-14T11:17:10.276Z,3.77
2019-01-14T11:19:42.377Z,3.79
2019-01-14T11:22:13.289Z,3.80
2019-01-14T11:24:50.523Z,3.89
2019-01-14T11:27:23.762Z,3.92
2019-01-14T11:29:56.081Z,3.94
2019-01-14T11:32:26.876Z,4.12
2019-01-14T11:34:57.823Z,4.10
2019-01-14T11:37:28.682Z,4.13
2019-01-14T11:39:59.543Z,4.11
2019-01-14T11:42:30.677Z,4.16
2019-01-14T11:45:01.530Z,4.22
2019-01-14T11:47:32.501Z,4.30
2019-01-14T11:50:03.449Z,4.15
2019-01-14T11:52:38.865Z,4.20
2019-01-14T11:55:19.920Z,4.11
2019-01-14T11:57:52.057Z,4.16
2019-01-14T12:00:27.410Z,4.15
2019-01-14T12:03:00.089Z,4.14
2019-01-14T12:05:31.060Z,4.33
2019-01-14T12:08:01.865Z,4.41
2019-01-14T12:10:32.863Z,4.41
2019-01-14T12:13:03.822Z,4.46
2019-01-14T12:15:36.968Z,4.38
2019-01-14T12:18:08.041Z,4.54
2019-01-14T12:20:39.015Z,4.64
2019-01-14T12:23:09.954Z,4.67
2019-01-14T12:25:40.866Z,4.82
2019-01-14T12:28:17.548Z,4.86
2019-01-14T12:30:48.493Z,4.84
2019-01-14T12:33:19.319Z,4.74
2019-01-14T12:35:51.769Z,4.64
2019-01-14T12:38:22.614Z,4.62
2019-01-14T12:40:53.454Z,4.62
2019-01-14T12:43:24.282Z,4.69
2019-01-14T12:45:55.180Z,4.56
2019-01-14T12:48:26.020Z,4.49
2019-01-14T12:50:56.895Z,4.48
2019-01-14T12:53:27.809Z,4.41
2019-01-14T12:55:58.772Z,4.32
2019-01-14T12:58:29.595Z,4.25
2019-01-14T13:01:00.404Z,4.17
2019-01-14T13:03:31.276Z,4.10
2019-01-14T13:06:02.200Z,4.09
2019-01-14T13:08:33.082Z,4.11
2019-01-14T13:11:04.004Z,3.93
2019-01-14T13:13:34.840Z,3.85
2019-01-14T13:18:48.377Z,3.64
2019-01-14T13:21:22.202Z,3.59
2019-01-14T13:23:53.048Z,3.32
2019-01-14T13:26:23.963Z,3.12
2019-01-14T13:28:54.789Z,3.02
2019-01-14T13:31:25.734Z,2.95
2019-01-14T13:33:56.516Z,2.97
2019-01-14T13:36:27.328Z,3.01
2019-01-14T13:38:58.229Z,3.07
2019-01-14T13:41:29.020Z,3.15
2019-01-14T13:43:59.904Z,3.21
2019-01-14T13:46:30.762Z,3.31
2019-01-14T13:49:01.591Z,3.34
2019-01-14T13:51:32.363Z,3.35
2019-01-14T13:54:03.184Z,3.36
2019-01-14T13:56:33.962Z,3.35
2019-01-14T13:59:04.932Z,3.34
2019-01-14T14:01:35.724Z,3.36
2019-01-14T14:04:06.980Z,3.41
2019-01-14T14:06:44.097Z,3.46
2019-01-14T14:09:26.443Z,3.41
2019-01-14T14:12:15.826Z,3.39
2019-01-14T14:15:05.494Z,3.41
2019-01-14T14:17:40.284Z,3.35
2019-01-14T14:20:38.959Z,3.35
2019-01-14T14:22:57.402Z,3.26
2019-01-14T14:25:28.757Z,1.47
2019-01-14T14:28:00.472Z,0.53
2019-01-14T14:30:51.113Z,-0.07
2019-01-14T14:33:26.411Z,-0.18
2019-01-14T14:35:57.483Z,-0.27
2019-01-14T14:38:28.713Z,-0.26
2019-01-14T14:41:00.112Z,-0.23
2019-01-14T14:43:34.233Z,-0.20
2019-01-14T14:46:05.478Z,-0.12
2019-01-14T14:48:37.946Z,0.00
2019-01-14T14:51:08.843Z,0.12
2019-01-14T14:53:39.795Z,0.23
2019-01-14T14:56:10.855Z,0.44
2019-01-14T14:58:41.947Z,0.56
2019-01-14T15:01:13.041Z,0.66
2019-01-14T15:03:43.966Z,0.69
2019-01-14T15:06:14.892Z,0.45
2019-01-14T15:08:45.801Z,0.21
2019-01-14T15:11:16.827Z,-0.03
2019-01-14T15:13:47.651Z,-0.13
2019-01-14T15:16:20.995Z,-0.18
2019-01-14T15:18:51.111Z,-0.18
2019-01-14T15:21:22.081Z,-0.17
2019-01-14T15:23:52.876Z,-0.16
2019-01-14T15:26:23.643Z,-0.13
2019-01-14T15:28:54.632Z,-0.11
2019-01-14T15:31:25.445Z,-0.07
2019-01-14T15:33:56.271Z,-0.07
2019-01-14T15:36:27.119Z,-0.02
2019-01-14T15:38:58.087Z,-0.01
2019-01-14T15:41:29.076Z,0.05
2019-01-14T15:44:02.171Z,-0.02
2019-01-14T15:46:33.131Z,-0.06
2019-01-14T15:49:03.871Z,-0.05
2019-01-14T15:51:34.723Z,-0.03
2019-01-14T15:54:05.619Z,-0.01
2019-01-14T15:56:36.495Z,0.03
2019-01-14T15:59:09.202Z,0.09
2019-01-14T16:01:40.327Z,0.13
2019-01-14T16:04:11.242Z,0.17
2019-01-14T16:06:41.998Z,0.24
2019-01-14T16:09:12.784Z,0.22
2019-01-14T16:11:43.533Z,0.26
2019-01-14T16:14:17.245Z,0.70
2019-01-14T16:16:49.086Z,0.73
2019-01-14T16:19:21.550Z,0.92
2019-01-14T16:21:52.352Z,1.30
2019-01-14T16:24:25.658Z,1.29
2019-01-14T16:26:56.470Z,1.29
2019-01-14T16:29:27.481Z,1.25
2019-01-14T16:31:58.459Z,1.33
2019-01-14T16:34:29.250Z,1.47
2019-01-14T16:37:02.862Z,1.33
2019-01-14T16:39:35.904Z,1.59
2019-01-14T16:42:09.974Z,1.69
2019-01-14T16:44:40.815Z,1.70
2019-01-14T16:47:11.721Z,1.31
2019-01-14T16:49:42.685Z,0.94
2019-01-14T16:52:13.703Z,0.89
2019-01-14T16:54:44.678Z,0.84
2019-01-14T16:57:15.546Z,0.77
2019-01-14T16:59:46.422Z,0.72
2019-01-14T17:02:19.232Z,0.72
2019-01-14T17:04:49.978Z,0.66
2019-01-14T17:07:23.694Z,0.68
2019-01-14T17:09:54.589Z,0.69
2019-01-14T17:12:25.825Z,0.65
2019-01-14T17:14:56.843Z,0.57
2019-01-14T17:17:27.870Z,0.55
2019-01-14T17:19:58.658Z,0.52
2019-01-14T17:22:29.601Z,0.52
2019-01-14T17:25:00.671Z,0.52
2019-01-14T17:27:31.629Z,0.46
2019-01-14T17:30:02.568Z,0.50
2019-01-14T17:32:36.414Z,0.44
2019-01-14T17:35:07.982Z,0.42
2019-01-14T17:37:39.270Z,0.49
2019-01-14T17:40:14.114Z,0.36
2019-01-14T17:42:45.320Z,0.43
2019-01-14T17:45:24.664Z,0.41
2019-01-14T17:47:58.659Z,0.29
2019-01-14T17:50:34.378Z,0.35
2019-01-14T18:07:29.981Z,0.28
2019-01-14T18:10:02.645Z,0.41
2019-01-14T18:12:35.540Z,0.37
2019-01-14T18:15:17.897Z,0.30
2019-01-14T18:17:56.626Z,0.21
2019-01-14T18:20:30.858Z,0.20
2019-01-14T18:23:12.380Z,0.29
2019-01-14T18:25:39.863Z,0.21
2019-01-14T18:28:13.483Z,0.29
2019-01-14T18:31:31.742Z,0.32
2019-01-14T18:54:16.341Z,0.31
2019-01-14T18:56:49.422Z,0.30
2019-01-14T18:59:24.274Z,0.27
2019-01-14T19:02:04.717Z,0.30
2019-01-14T19:04:37.660Z,0.30
2019-01-14T19:07:11.099Z,0.22
2019-01-14T19:09:42.183Z,0.23
2019-01-14T19:12:16.858Z,0.26
2019-01-14T19:14:47.573Z,0.33
2019-01-14T19:17:24.685Z,0.30
2019-01-14T19:19:59.293Z,0.31
2019-01-14T19:22:31.709Z,0.29
2019-01-14T19:25:02.788Z,0.32
2019-01-14T19:27:47.977Z,0.27
2019-01-14T19:30:27.544Z,0.28
2019-01-14T19:32:59.037Z,0.26
2019-01-14T19:35:45.418Z,0.13
2019-01-14T19:38:39.349Z,0.12
2019-01-14T19:40:51.910Z,0.28
2019-01-14T19:43:33.316Z,0.19
2019-01-14T19:46:09.171Z,0.22
2019-01-14T19:48:41.629Z,0.23
2019-01-14T19:51:16.448Z,0.14
2019-01-14T19:54:09.989Z,0.23
2019-01-14T19:56:30.023Z,0.26
2019-01-14T19:59:53.236Z,0.31
2019-01-14T20:02:36.892Z,0.28
2019-01-14T20:05:00.437Z,0.29
2019-01-14T20:07:31.658Z,0.29
2019-01-14T20:10:05.022Z,0.31
2019-01-14T20:12:35.888Z,0.37
2019-01-14T20:15:08.728Z,0.32
2019-01-14T20:17:42.577Z,0.24
2019-01-14T20:20:17.013Z,0.25
2019-01-14T20:22:50.783Z,0.33
2019-01-14T20:25:21.946Z,0.43
2019-01-14T20:27:55.067Z,0.46
2019-01-14T20:30:36.076Z,0.60
2019-01-14T20:33:08.121Z,0.66
2019-01-14T20:35:39.017Z,0.81
2019-01-14T20:38:09.864Z,0.88
2019-01-14T20:40:41.972Z,1.01
2019-01-14T20:43:12.845Z,1.07
2019-01-14T21:06:37.613Z,1.34
2019-01-14T21:09:09.985Z,1.33
2019-01-14T21:11:43.606Z,1.35
2019-01-14T21:14:21.152Z,1.33
2019-01-14T21:16:58.541Z,1.31
2019-01-14T21:19:30.854Z,1.32
2019-01-14T21:22:07.012Z,1.36
2019-01-14T21:24:41.180Z,1.36
2019-01-14T21:27:18.975Z,1.31
2019-01-14T21:29:54.336Z,1.26
2019-01-14T21:32:28.314Z,1.30
2019-01-14T21:35:10.553Z,1.35
2019-01-14T21:37:51.205Z,1.33
2019-01-14T21:40:48.106Z,1.36
2019-01-14T21:46:04.066Z,1.29
2019-01-14T21:47:39.608Z,1.41
2019-01-14T21:52:10.954Z,1.33
2019-01-14T21:54:42.030Z,1.27
2019-01-14T21:57:15.984Z,1.36
2019-01-14T21:59:53.822Z,1.26
2019-01-14T22:02:30.607Z,1.34
2019-01-14T22:05:01.573Z,1.43
2019-01-14T22:07:39.541Z,1.44
2019-01-14T22:10:23.625Z,1.40
2019-01-14T22:12:54.370Z,1.45
2019-01-14T22:15:25.551Z,1.41
2019-01-14T22:17:59.540Z,1.45
2019-01-14T22:20:39.117Z,1.39
2019-01-14T22:23:11.876Z,1.39
2019-01-14T22:25:43.008Z,1.43
2019-01-14T22:28:15.658Z,1.39
2019-01-14T22:30:57.931Z,1.32
2019-01-14T22:33:30.866Z,1.34
2019-01-14T22:36:04.244Z,1.34
2019-01-14T22:38:35.339Z,1.39
2019-01-14T22:41:07.279Z,1.44
2019-01-14T22:43:43.115Z,1.40
2019-01-14T22:46:13.752Z,1.40
2019-01-14T22:48:53.661Z,1.35
2019-01-14T22:51:25.953Z,1.36
2019-01-14T22:54:02.232Z,1.31
2019-01-14T22:56:32.941Z,1.26
2019-01-14T22:59:16.244Z,1.29
2019-01-14T23:01:53.887Z,1.23
2019-01-14T23:04:30.215Z,1.13
2019-01-14T23:07:10.419Z,1.04
2019-01-14T23:09:47.593Z,0.86
2019-01-14T23:12:27.239Z,0.97
2019-01-14T23:14:59.203Z,0.88
2019-01-14T23:17:40.969Z,0.93
2019-01-14T23:20:13.852Z,0.93
2019-01-14T23:22:45.003Z,0.87
2019-01-14T23:25:18.363Z,0.90
2019-01-14T23:27:50.959Z,1.09
2019-01-14T23:30:25.635Z,1.03
2019-01-14T23:32:59.515Z,0.99
2019-01-14T23:35:34.193Z,1.09
2019-01-14T23:38:08.099Z,1.14
2019-01-14T23:40:38.887Z,1.14
2019-01-14T23:43:21.013Z,1.18
2019-01-14T23:45:52.802Z,1.23
2019-01-14T23:48:25.578Z,1.19
2019-01-14T23:50:58.827Z,1.16
2019-01-14T23:53:31.664Z,1.17
2019-01-14T23:56:03.131Z,1.22
2019-01-14T23:58:37.170Z,1.21
